Aérodrome :
LOGIN :

S'inscrire | Disclaimer

   EN    FR    IT 

 










Légende :    VFR   VFR Marginal   IFR   IFR Intensif   IFR Très Intensif
Visi : 
Plafond : 
>= 8 km
>= 3000ft
5 à 8 km
1000 à 3000 ft
1500m à 5 km
500 à 1000 ft
800 à 1500m
200 à 500 ft
< 800m
< 200 ft
Symboles :   Orages  Brouillard  Fortes neiges  Fortes précipitations  Vent > 20 kt
SIGMETs :   Divers  Orages  Givrage  Turbulence  Onde Orograph.  Cendres Volcan.






- Altitude de l'aérodrome : 183 ft
- Code IATA : HAJ


EDDV - Hanover/Langenhagen Int.

DERNIER METAR :
  • 211020Z AUTO 26003KT 230V320 CAVOK 28/20 Q1007 NOSIG

METARs EXPIRÉS :
  • 210950Z AUTO 29003KT 230V320 CAVOK 28/19 Q1007 NOSIG
  • 210920Z AUTO VRB02KT CAVOK 29/18 Q1006 NOSIG
  • 210850Z AUTO 14004KT 080V190 CAVOK 28/18 Q1006 NOSIG
  • 210820Z AUTO VRB02KT CAVOK 27/19 Q1007 NOSIG
  • 210750Z AUTO VRB02KT CAVOK 26/19 Q1006 NOSIG
  • 210720Z AUTO VRB02KT CAVOK 25/18 Q1007 NOSIG
  • 210650Z AUTO VRB02KT CAVOK 25/18 Q1006 NOSIG
  • 210620Z AUTO 07004KT 040V100 CAVOK 23/18 Q1006 NOSIG
  • 210550Z AUTO 10004KT 070V130 CAVOK 23/17 Q1006 NOSIG

TAF TAF EDDV
Valide du 21 à 06h jusqu'au 22 à 06h UTC


210500Z 2106/2206 10004KT CAVOK
BECMG 2107/2110 23005KT
PROB30
TEMPO 2113/2121 27020G30KT 2000 +TSRAGR BKN013CB
BECMG 2119/2122 29007KT
PROB30
TEMPO 2122/2206 4000 BR BKN012



MET'MAP, la Météo Aéronautique d'un coup d'oeil ! - Copyright ORBIFLY Décembre 2007 - Disclaimer

ORBIFLY MET'MAP TEAM :

Programmation & Développement : Alexandra Zaïnal
Sur une idée originale de : Baudouin d'Aumeries
Soutien technique & logistique : Manuel Goepfert
Assistance : Marc-Olivier Méhu




SOURCES & CREDITS :

   NOAA